Portada
METAR-TAF:

METAR-TAF

Aeroports :

Coles County Memorial Airport

Mattoon-Charleston, Illinois, Estats Units d'Amèrica

latitud: 39-28-41N, longitud: 088-16-45W, altitud: 220 m

Observació

L'informe es va fer fa 26 minuts, a les 06:53 UTC
Vent 12 kt del Sud/Sud-Oest amb ràfegues de 18 kt
Temperatura 27°C
Humitat 62%
Pressió 1008 hPa
Visibilitat: 16.1 km
Núvols disperses a una alçada de 7000 ft
Cel ennuvolat a una alçada de 9000 ft
Cel cobert a una alçada de 11000 ft

METAR: KMTO 230653Z AUTO 20012G18KT 10SM SCT070 BKN090 OVC110 27/19 A2978 RMK AO2 SLP078 T02720194 $

Hora: 02:19 (07:19 UTC)


TAF: manca

Observacions i pronòstics meteorològics de més de 4000 aeroports (METAR i TAF).

Les estacions disponibles són els punts grocs i vermells al mapa.

Posi el ratolí al punt desitjat per veure el nom de l'estació.

Feu clic per veure les observacions i els pronòstics meteorològics.

Per canviar el mapa: feu clic els botons verds amb una creu de color negre per apropar; al botó verd amb un guió per allunyar la imatge; o en les fletxes verdes per a mapes adjacents.


METAR-TAF: